Hauptseite
METAR-TAF:

METAR-TAF

Flughäfen :

Bournemouth, England

Bournemouth Airport

Breite: 50-47N, Länge: 001-50W, Höhe: 11 m

Beobachtung

Neuester Wetterbericht von vor 3 Stunden und 36 Minuten, um 21:50 UTC
Wind 7 kt aus Ost/Nordost
Temperatur 0°C
Luftfeuchtigkeit 69%
Luftdruck 1022 hPa
Sichtweite 10 km oder mehr
keine Wolken unter 1500 m und keine Kumulonimbus oder Gewitterwolken

METAR: EGHH 242150Z 06007KT CAVOK M00/M05 Q1022

Zeit: 01:26 (01:26 UTC)

Prognose

Neuester Wetterbericht von vor 5 Stunden und 30 Minuten, um 19:56 UTC
Gültige Prognose vom 24 um 21 UTC bis 25 um 06 UTC
Wind 9 kt aus Ost
Sichtweite 10 km oder mehr
Leicht bewölkt in der Höhe von 4000 ft

TAF: EGHH 241956Z 2421/2506 08009KT 9999 FEW040

Wetterbeobachtungen und Prognosen von mehr als 4000 Flughäfen (METAR und TAF Bericht).

Die verfügbaren Stationen werden durch gelbe und rote Markierungen auf der Karte dargestellt.

Führen Sie die Maus auf sie, um den Namen der Station zu sehen.

Darauf klicken, um die Beobachtung von Wetterbeobachtungen und Prognosen zu sehen.

Um die Karte zu ändern : klicken Sie auf den grünen Tasten mit einem schwarzen Kreuz Zum Vergrößern, auf den grünen Button mit einem Gedankenstrich zu verkleinern, oder auf die grünen Pfeile für benachbarte Karten.


METAR-TAF: